createdAt,value
2022-08-21T00:00:27.353Z,91.93
2022-08-21T00:02:22.503Z,92.74
2022-08-21T00:03:27.048Z,91.87
2022-08-21T00:04:34.655Z,92.07
2022-08-21T00:05:27.526Z,91.97
2022-08-21T00:07:23.085Z,92.07
2022-08-21T00:09:26.762Z,91.77
2022-08-21T00:10:21.401Z,91.06
2022-08-21T00:11:18.043Z,89.65
2022-08-21T00:12:18.728Z,89.15
2022-08-21T00:13:18.809Z,89.65
2022-08-21T00:14:21.283Z,89.75
2022-08-21T00:15:21.981Z,90.61
2022-08-21T00:16:18.741Z,91.91
2022-08-21T00:17:19.263Z,91.61
2022-08-21T00:18:21.346Z,91.31
2022-08-21T00:19:18.866Z,90.00
2022-08-21T00:20:23.689Z,90.65
2022-08-21T00:21:25.656Z,90.41
2022-08-21T00:22:24.487Z,90.14
2022-08-21T00:23:20.276Z,90.04
2022-08-21T00:24:19.883Z,90.55
2022-08-21T00:25:24.244Z,91.31
2022-08-21T00:26:26.697Z,91.66
2022-08-21T00:27:27.526Z,91.46
2022-08-21T00:28:26.536Z,91.86
2022-08-21T00:29:25.453Z,91.86
2022-08-21T00:30:24.062Z,91.86
2022-08-21T00:31:23.249Z,91.41
2022-08-21T00:32:24.649Z,91.76
2022-08-21T00:33:25.927Z,91.46
2022-08-21T00:34:24.952Z,92.26
2022-08-21T00:35:25.945Z,92.52
2022-08-21T00:36:24.098Z,93.33
2022-08-21T00:37:21.650Z,93.57
2022-08-21T00:38:17.930Z,93.77
2022-08-21T00:39:25.352Z,93.57
2022-08-21T00:40:24.794Z,93.62
2022-08-21T00:41:37.438Z,93.48
2022-08-21T00:42:18.804Z,93.72
2022-08-21T00:43:20.662Z,92.66
2022-08-21T00:44:27.445Z,92.50
2022-08-21T00:45:29.720Z,92.46
2022-08-21T00:46:19.502Z,92.26
2022-08-21T00:47:21.208Z,91.96
2022-08-21T00:48:25.556Z,92.57
2022-08-21T00:49:18.824Z,93.17
2022-08-21T00:50:22.107Z,93.82
2022-08-21T00:51:23.833Z,92.81
2022-08-21T00:52:18.506Z,93.76
2022-08-21T00:53:17.795Z,93.76
2022-08-21T00:54:23.414Z,93.51
2022-08-21T00:55:23.538Z,93.75
2022-08-21T00:56:22.602Z,93.95
2022-08-21T00:57:23.839Z,93.65
2022-08-21T00:58:24.121Z,94.26
2022-08-21T00:59:24.684Z,93.75
2022-08-21T01:00:25.202Z,93.15
2022-08-21T01:01:42.810Z,92.24
2022-08-21T01:02:26.543Z,91.83
2022-08-21T01:03:23.665Z,91.93
2022-08-21T01:05:26.734Z,93.00
2022-08-21T01:06:26.403Z,92.84
2022-08-21T01:08:20.542Z,92.64
2022-08-21T01:09:29.454Z,92.90
2022-08-21T01:10:25.792Z,93.04
2022-08-21T01:12:26.504Z,92.29
2022-08-21T01:13:23.354Z,92.03
2022-08-21T01:14:27.587Z,91.63
2022-08-21T01:15:19.969Z,91.42
2022-08-21T01:16:20.491Z,90.21
2022-08-21T01:17:21.929Z,92.13
2022-08-21T01:18:24.016Z,92.44
2022-08-21T01:19:18.425Z,93.55
2022-08-21T01:20:32.564Z,92.84
2022-08-21T01:21:28.192Z,92.74
2022-08-21T01:22:25.167Z,93.55
2022-08-21T01:23:21.554Z,93.65
2022-08-21T01:24:21.172Z,92.84
2022-08-21T01:25:18.173Z,92.24
2022-08-21T01:26:24.040Z,92.13
2022-08-21T01:27:22.251Z,92.38
2022-08-21T01:28:18.139Z,92.54
2022-08-21T01:29:22.801Z,92.94
2022-08-21T01:30:20.644Z,92.28
2022-08-21T01:31:27.177Z,92.28
2022-08-21T01:32:28.084Z,91.57
2022-08-21T01:33:26.645Z,91.57
2022-08-21T01:34:18.177Z,91.27
2022-08-21T01:35:26.288Z,91.57
2022-08-21T01:36:26.283Z,91.97
2022-08-21T01:37:23.619Z,89.65
2022-08-21T01:38:24.311Z,89.95
2022-08-21T01:39:27.978Z,90.66
2022-08-21T01:40:28.238Z,91.57
2022-08-21T01:41:26.907Z,92.32
2022-08-21T01:42:24.309Z,92.32
2022-08-21T01:43:19.412Z,92.32
2022-08-21T01:44:25.090Z,92.22
2022-08-21T01:45:26.831Z,91.61
2022-08-21T01:47:25.617Z,92.42
2022-08-21T01:48:18.306Z,90.91
2022-08-21T01:49:24.297Z,91.15
2022-08-21T01:50:18.145Z,90.75
2022-08-21T01:51:17.181Z,90.95
2022-08-21T01:53:20.352Z,90.44
2022-08-21T01:54:24.686Z,89.67
2022-08-21T01:55:19.938Z,89.98
2022-08-21T01:56:18.358Z,87.95
2022-08-21T01:57:26.026Z,87.89
2022-08-21T01:58:19.245Z,88.46
2022-08-21T01:59:23.864Z,88.86
2022-08-21T02:00:23.582Z,89.57
2022-08-21T02:01:19.600Z,89.81
2022-08-21T02:02:18.466Z,90.18
2022-08-21T02:03:26.451Z,89.98
2022-08-21T02:04:18.042Z,90.08
2022-08-21T02:05:17.856Z,90.28
2022-08-21T02:06:16.949Z,90.69
2022-08-21T02:07:16.888Z,92.41
2022-08-21T02:08:16.842Z,93.62
2022-08-21T02:09:17.536Z,95.35
2022-08-21T02:10:26.264Z,94.23
2022-08-21T02:11:23.377Z,93.83
2022-08-21T02:12:22.548Z,93.87
2022-08-21T02:13:25.218Z,94.18
2022-08-21T02:14:27.191Z,89.96
2022-08-21T02:15:23.520Z,91.22
2022-08-21T02:16:20.189Z,91.87
2022-08-21T02:17:23.777Z,92.64
2022-08-21T02:19:23.723Z,93.24
2022-08-21T02:20:27.756Z,94.25
2022-08-21T02:21:20.337Z,94.15
2022-08-21T02:22:23.819Z,94.51
2022-08-21T02:23:20.761Z,94.00
2022-08-21T02:24:23.036Z,94.41
2022-08-21T02:25:21.918Z,93.40
2022-08-21T02:26:19.484Z,92.74
2022-08-21T02:27:24.666Z,93.40
2022-08-21T02:28:17.677Z,92.64
2022-08-21T02:29:23.255Z,92.79
2022-08-21T02:30:24.812Z,94.17
2022-08-21T02:31:25.311Z,94.82
2022-08-21T02:32:23.701Z,94.67
2022-08-21T02:33:18.972Z,93.76
2022-08-21T02:34:24.571Z,94.06
2022-08-21T02:35:17.670Z,94.06
2022-08-21T02:36:19.302Z,94.77
2022-08-21T02:37:16.716Z,95.07
2022-08-21T02:38:17.060Z,95.03
2022-08-21T02:39:16.662Z,95.03
2022-08-21T02:40:23.214Z,93.61
2022-08-21T02:41:26.461Z,94.42
2022-08-21T02:42:21.348Z,94.62
2022-08-21T02:43:20.278Z,93.81
2022-08-21T02:44:21.973Z,94.22
2022-08-21T02:45:22.201Z,93.30
2022-08-21T02:47:17.856Z,92.14
2022-08-21T02:48:21.678Z,92.65
2022-08-21T02:49:18.264Z,92.45
2022-08-21T02:50:20.104Z,92.96
2022-08-21T02:51:20.357Z,93.57
2022-08-21T02:53:25.409Z,89.96
2022-08-21T02:55:27.759Z,93.45
2022-08-21T02:56:28.143Z,92.24
2022-08-21T02:57:22.297Z,92.18
2022-08-21T02:58:22.547Z,92.74
2022-08-21T02:59:24.848Z,93.60
2022-08-21T03:00:26.641Z,94.51
2022-08-21T03:01:25.676Z,93.19
2022-08-21T03:02:23.357Z,94.06
2022-08-21T03:05:26.360Z,94.62
2022-08-21T03:08:27.836Z,95.54
2022-08-21T03:09:25.971Z,95.23
2022-08-21T03:10:24.760Z,95.34
2022-08-21T03:11:27.840Z,95.29
2022-08-21T03:12:30.191Z,95.70
2022-08-21T03:13:30.101Z,95.50
2022-08-21T03:14:27.836Z,95.39
2022-08-21T03:15:25.849Z,94.89
2022-08-21T03:17:29.436Z,95.34
2022-08-21T03:18:25.546Z,95.09
2022-08-21T03:19:23.829Z,95.34
2022-08-21T03:20:23.765Z,95.09
2022-08-21T03:21:28.214Z,95.13
2022-08-21T03:22:25.452Z,95.13
2022-08-21T03:23:25.971Z,94.68
2022-08-21T03:24:26.209Z,94.89
2022-08-21T03:25:39.528Z,94.89
2022-08-21T03:26:27.913Z,94.98
2022-08-21T03:27:27.055Z,94.68
2022-08-21T03:28:28.109Z,94.68
2022-08-21T03:29:22.180Z,94.98
2022-08-21T03:30:22.119Z,94.98
2022-08-21T03:31:27.869Z,94.98
2022-08-21T03:32:26.384Z,94.98
2022-08-21T03:34:41.797Z,94.98
2022-08-21T03:35:26.567Z,94.98
2022-08-21T03:36:29.764Z,95.39
2022-08-21T03:37:32.685Z,95.19
2022-08-21T03:38:27.062Z,96.10
2022-08-21T03:40:28.572Z,96.15
2022-08-21T03:41:26.916Z,96.20
2022-08-21T03:43:24.974Z,95.14
2022-08-21T03:44:29.563Z,95.35
2022-08-21T03:49:33.675Z,95.25
2022-08-21T03:50:27.388Z,96.01
2022-08-21T03:51:32.104Z,95.95
2022-08-21T03:53:26.486Z,96.26
2022-08-21T03:54:28.821Z,96.26
2022-08-21T03:55:25.477Z,95.95
2022-08-21T03:56:23.426Z,96.56
2022-08-21T03:58:25.292Z,96.26
2022-08-21T03:59:25.246Z,97.17
2022-08-21T04:01:54.289Z,97.38
2022-08-21T04:02:53.791Z,97.27
2022-08-21T04:03:54.181Z,97.27
2022-08-21T04:04:54.522Z,97.78
2022-08-21T04:05:54.703Z,98.18
2022-08-21T04:06:53.874Z,98.18
2022-08-21T04:07:53.725Z,97.83
2022-08-21T04:08:53.890Z,98.49
2022-08-21T04:09:54.458Z,98.59
2022-08-21T04:10:55.076Z,98.33
2022-08-21T04:11:54.872Z,98.79
2022-08-21T04:12:54.361Z,98.43
2022-08-21T04:13:53.663Z,98.79
2022-08-21T04:14:55.209Z,98.74
2022-08-21T04:15:56.917Z,98.43
2022-08-21T04:16:55.289Z,98.84
2022-08-21T04:17:55.090Z,99.55
2022-08-21T04:18:55.012Z,99.14
2022-08-21T04:19:54.055Z,98.84
2022-08-21T04:20:54.434Z,98.74
2022-08-21T04:21:56.346Z,98.68
2022-08-21T04:22:54.238Z,98.94
2022-08-21T04:23:54.755Z,98.94
2022-08-21T04:24:53.463Z,98.84
2022-08-21T04:25:54.817Z,99.35
2022-08-21T04:26:55.185Z,99.75
2022-08-21T04:27:53.860Z,99.65
2022-08-21T04:28:56.735Z,99.44
2022-08-21T04:29:54.797Z,99.99
2022-08-21T04:30:54.311Z,99.75
2022-08-21T04:31:54.472Z,99.55
2022-08-21T04:32:53.409Z,99.99
2022-08-21T04:33:54.310Z,99.65
2022-08-21T04:34:54.306Z,99.99
2022-08-21T04:35:56.466Z,99.95
2022-08-21T04:36:54.825Z,99.75
2022-08-21T04:37:54.242Z,99.99
2022-08-21T04:38:56.405Z,99.99
2022-08-21T04:39:54.497Z,99.99
2022-08-21T04:43:25.487Z,99.99
2022-08-21T04:44:26.534Z,99.99
2022-08-21T04:45:25.773Z,99.80
2022-08-21T04:46:25.674Z,99.91
2022-08-21T04:47:52.218Z,99.60
2022-08-21T04:49:37.037Z,99.30
2022-08-21T04:50:24.025Z,99.99
2022-08-21T04:51:23.831Z,99.60
2022-08-21T04:52:24.437Z,99.60
2022-08-21T04:53:23.999Z,99.99
2022-08-21T04:54:24.095Z,99.99
2022-08-21T04:55:23.845Z,99.80
2022-08-21T04:56:23.852Z,99.91
2022-08-21T04:57:23.960Z,99.80
2022-08-21T04:58:24.989Z,99.91
2022-08-21T04:59:24.870Z,99.99
2022-08-21T05:00:24.838Z,99.99
2022-08-21T05:01:23.653Z,99.99
2022-08-21T05:02:25.565Z,99.99
2022-08-21T05:03:30.866Z,99.99
2022-08-21T05:04:24.739Z,99.99
2022-08-21T05:05:23.968Z,99.99
2022-08-21T05:06:23.931Z,99.99
2022-08-21T05:07:41.695Z,99.99
2022-08-21T05:08:24.889Z,99.99
2022-08-21T05:09:23.533Z,99.99
2022-08-21T05:10:23.849Z,99.99
2022-08-21T05:12:55.587Z,99.99
2022-08-21T05:13:56.331Z,99.99
2022-08-21T05:14:56.539Z,99.99
2022-08-21T05:18:04.151Z,99.99
2022-08-21T05:19:04.421Z,99.99
2022-08-21T05:19:59.890Z,99.99
2022-08-21T05:20:58.116Z,99.99
2022-08-21T05:22:10.557Z,99.99
2022-08-21T05:24:08.087Z,99.99
2022-08-21T05:25:00.705Z,99.99
2022-08-21T05:26:05.319Z,99.99
2022-08-21T05:26:59.751Z,99.71
2022-08-21T05:28:00.822Z,99.99
2022-08-21T05:28:58.022Z,99.91
2022-08-21T05:30:09.618Z,99.61
2022-08-21T05:31:00.022Z,99.81
2022-08-21T05:34:39.565Z,99.97
2022-08-21T05:35:39.072Z,99.56
2022-08-21T05:36:52.773Z,99.97
2022-08-21T05:37:42.145Z,99.97
2022-08-21T05:38:39.074Z,99.99
2022-08-21T05:40:20.702Z,98.90
2022-08-21T05:40:39.536Z,98.90
2022-08-21T05:41:50.024Z,99.41
2022-08-21T05:42:37.702Z,99.99
2022-08-21T05:43:40.142Z,99.56
2022-08-21T05:44:39.122Z,99.56
2022-08-21T05:45:43.067Z,99.46
2022-08-21T05:46:37.447Z,99.52
2022-08-21T05:47:37.445Z,99.99
2022-08-21T05:48:42.634Z,99.26
2022-08-21T05:49:41.104Z,98.71
2022-08-21T05:52:16.497Z,98.30
2022-08-21T05:53:16.873Z,97.49
2022-08-21T05:54:18.545Z,97.09
2022-08-21T05:55:17.910Z,98.10
2022-08-21T05:56:16.177Z,97.55
2022-08-21T05:57:16.918Z,96.94
2022-08-21T05:58:18.378Z,97.05
2022-08-21T05:59:17.327Z,95.63
2022-08-21T06:00:16.183Z,95.83
2022-08-21T06:01:16.323Z,95.89
2022-08-21T06:02:17.077Z,95.07
2022-08-21T06:03:18.023Z,95.93
2022-08-21T06:04:18.080Z,94.37
2022-08-21T06:05:16.878Z,94.57
2022-08-21T06:06:17.372Z,94.57
2022-08-21T06:07:17.597Z,94.47
2022-08-21T06:08:16.590Z,95.07
2022-08-21T06:09:16.426Z,94.67
2022-08-21T06:10:17.502Z,94.73
2022-08-21T06:11:16.989Z,93.92
2022-08-21T06:12:15.831Z,93.56
2022-08-21T06:13:18.104Z,93.76
2022-08-21T06:15:57.386Z,94.07
2022-08-21T06:16:57.409Z,94.47
2022-08-21T06:17:57.509Z,94.83
2022-08-21T06:19:00.803Z,93.62
2022-08-21T06:19:57.942Z,94.02
2022-08-21T06:20:57.870Z,93.62
2022-08-21T06:21:58.333Z,93.37
2022-08-21T06:22:58.154Z,93.37
2022-08-21T06:23:57.870Z,93.82
2022-08-21T06:24:57.437Z,92.97
2022-08-21T06:25:57.465Z,93.68
2022-08-21T06:26:56.913Z,93.37
2022-08-21T06:27:56.958Z,93.37
2022-08-21T06:29:00.912Z,93.57
2022-08-21T06:31:24.124Z,92.97
2022-08-21T06:32:34.927Z,93.13
2022-08-21T06:35:09.390Z,92.82
2022-08-21T06:36:18.679Z,91.71
2022-08-21T06:38:51.163Z,92.22
2022-08-21T06:41:44.856Z,92.52
2022-08-21T06:42:45.410Z,91.91
2022-08-21T06:43:47.745Z,91.71
2022-08-21T06:44:47.389Z,92.18
2022-08-21T06:45:46.354Z,92.27
2022-08-21T06:46:44.783Z,92.32
2022-08-21T06:47:46.865Z,92.52
2022-08-21T06:48:46.861Z,92.12
2022-08-21T06:49:46.794Z,92.52
2022-08-21T06:50:44.742Z,92.57
2022-08-21T06:51:44.922Z,92.66
2022-08-21T06:52:44.755Z,93.52
2022-08-21T06:53:46.097Z,93.48
2022-08-21T06:56:20.410Z,93.02
2022-08-21T06:57:20.400Z,92.82
2022-08-21T06:59:55.663Z,91.97
2022-08-21T07:01:00.109Z,91.37
2022-08-21T07:01:58.909Z,91.82
2022-08-21T07:02:57.112Z,91.71
2022-08-21T07:03:55.960Z,92.52
2022-08-21T07:04:55.566Z,92.32
2022-08-21T07:05:57.203Z,92.97
2022-08-21T07:09:04.813Z,93.37
2022-08-21T07:10:02.576Z,93.57
2022-08-21T07:11:01.558Z,93.98
2022-08-21T07:11:59.910Z,93.73
2022-08-21T07:13:01.095Z,93.53
2022-08-21T07:14:02.481Z,92.52
2022-08-21T07:15:03.533Z,93.18
2022-08-21T07:17:53.174Z,91.73
2022-08-21T07:18:51.587Z,91.49
2022-08-21T07:19:51.582Z,91.44
2022-08-21T07:20:53.425Z,90.94
2022-08-21T07:21:52.527Z,89.99
2022-08-21T07:22:53.193Z,90.19
2022-08-21T07:23:51.386Z,88.68
2022-08-21T07:24:51.577Z,88.94
2022-08-21T07:25:53.348Z,88.13
2022-08-21T07:26:53.155Z,88.94
2022-08-21T07:27:53.374Z,88.74
2022-08-21T07:33:21.080Z,85.94
2022-08-21T07:34:21.057Z,86.34
2022-08-21T07:35:20.750Z,85.03
2022-08-21T07:36:20.865Z,84.83
2022-08-21T07:37:22.084Z,85.28
2022-08-21T07:38:22.033Z,86.02
2022-08-21T07:39:23.237Z,86.02
2022-08-21T07:42:08.516Z,87.98
2022-08-21T07:43:03.675Z,87.77
2022-08-21T07:46:05.385Z,87.23
2022-08-21T07:47:06.804Z,87.63
2022-08-21T07:48:05.684Z,87.43
2022-08-21T07:49:05.997Z,87.08
2022-08-21T07:50:06.623Z,86.85
2022-08-21T07:51:09.099Z,87.45
2022-08-21T07:52:07.356Z,87.01
2022-08-21T07:53:06.815Z,87.01
2022-08-21T07:54:05.521Z,86.02
2022-08-21T07:55:06.555Z,83.01
2022-08-21T07:56:07.472Z,83.77
2022-08-21T07:57:05.365Z,82.63
2022-08-21T07:58:05.690Z,82.39
2022-08-21T07:59:09.847Z,80.88
2022-08-21T08:00:07.764Z,80.38
2022-08-21T08:01:06.437Z,80.54
2022-08-21T08:02:06.292Z,80.28
2022-08-21T08:03:07.569Z,80.58
2022-08-21T08:04:08.320Z,81.02
2022-08-21T08:05:07.293Z,81.42
2022-08-21T08:06:06.249Z,82.03
2022-08-21T08:07:07.198Z,82.23
2022-08-21T08:08:05.719Z,81.52
2022-08-21T08:09:06.818Z,82.32
2022-08-21T08:10:06.726Z,82.45
2022-08-21T08:11:05.332Z,82.81
2022-08-21T08:12:06.277Z,79.53
2022-08-21T08:13:05.652Z,78.97
2022-08-21T08:15:37.680Z,79.41
2022-08-21T08:16:37.518Z,80.21
2022-08-21T08:17:37.153Z,78.91
2022-08-21T08:18:36.576Z,78.77
2022-08-21T08:19:36.620Z,78.60
2022-08-21T08:20:36.625Z,79.06
2022-08-21T08:21:37.150Z,79.36
2022-08-21T08:22:37.356Z,77.83
2022-08-21T08:23:37.671Z,77.79
2022-08-21T08:24:38.610Z,76.39
2022-08-21T08:25:37.586Z,75.76
2022-08-21T08:26:36.273Z,75.72
2022-08-21T08:27:36.190Z,76.42
2022-08-21T08:28:36.526Z,73.62
2022-08-21T08:29:36.951Z,72.78
2022-08-21T08:30:36.240Z,73.09
2022-08-21T08:31:38.156Z,71.59
2022-08-21T08:32:37.650Z,71.09
2022-08-21T08:33:37.906Z,71.69
2022-08-21T08:34:37.047Z,70.42
2022-08-21T08:35:36.319Z,70.65
2022-08-21T08:36:37.654Z,66.80
2022-08-21T08:37:38.115Z,64.58
2022-08-21T08:38:36.852Z,63.09
2022-08-21T08:39:36.923Z,66.17
2022-08-21T08:40:38.618Z,65.72
2022-08-21T08:41:36.360Z,62.40
2022-08-21T08:42:37.188Z,62.21
2022-08-21T08:43:37.360Z,62.26
2022-08-21T08:44:36.279Z,62.56
2022-08-21T08:47:24.950Z,64.39
2022-08-21T08:48:24.837Z,65.15
2022-08-21T08:49:26.081Z,64.49
2022-08-21T08:50:24.850Z,60.61
2022-08-21T08:51:27.645Z,64.06
2022-08-21T08:52:25.685Z,61.71
2022-08-21T08:53:24.771Z,61.64
2022-08-21T08:54:24.961Z,62.63
2022-08-21T08:55:27.316Z,64.16
2022-08-21T08:56:28.482Z,64.10
2022-08-21T08:57:25.875Z,60.96
2022-08-21T08:58:25.287Z,62.23
2022-08-21T08:59:24.483Z,58.70
2022-08-21T09:00:25.773Z,56.57
2022-08-21T09:01:24.904Z,53.47
2022-08-21T09:02:25.561Z,52.46
2022-08-21T09:03:26.607Z,53.25
2022-08-21T09:04:25.785Z,50.48
2022-08-21T09:05:24.750Z,55.62
2022-08-21T09:06:26.062Z,53.42
2022-08-21T09:07:26.835Z,53.77
2022-08-21T09:08:27.829Z,52.09
2022-08-21T09:09:25.417Z,49.90
2022-08-21T09:10:25.398Z,49.82
2022-08-21T09:11:25.952Z,51.32
2022-08-21T09:12:26.083Z,51.92
2022-08-21T09:13:26.091Z,53.13
2022-08-21T09:14:25.022Z,54.24
2022-08-21T09:15:26.610Z,53.75
2022-08-21T09:16:25.782Z,53.78
2022-08-21T09:17:25.077Z,55.09
2022-08-21T09:18:25.052Z,55.81
2022-08-21T09:19:25.503Z,56.11
2022-08-21T09:20:24.963Z,55.21
2022-08-21T09:21:25.579Z,55.91
2022-08-21T09:22:24.560Z,57.07
2022-08-21T09:23:24.983Z,54.35
2022-08-21T09:24:26.518Z,52.73
2022-08-21T09:25:25.400Z,52.51
2022-08-21T09:26:25.860Z,52.09
2022-08-21T09:29:09.966Z,51.28
2022-08-21T09:30:09.781Z,53.45
2022-08-21T09:31:09.996Z,51.54
2022-08-21T09:32:09.869Z,50.41
2022-08-21T09:33:09.890Z,50.53
2022-08-21T09:34:10.409Z,48.97
2022-08-21T09:35:10.339Z,47.71
2022-08-21T09:36:10.626Z,48.92
2022-08-21T09:37:10.839Z,50.88
2022-08-21T09:38:09.409Z,50.71
2022-08-21T09:39:09.853Z,50.56
2022-08-21T09:40:10.669Z,51.15
2022-08-21T09:43:55.514Z,52.14
2022-08-21T09:45:01.603Z,46.56
2022-08-21T09:48:26.464Z,46.25
2022-08-21T09:49:27.614Z,44.64
2022-08-21T09:50:26.048Z,44.79
2022-08-21T09:51:26.529Z,44.27
2022-08-21T09:52:25.569Z,44.82
2022-08-21T09:53:25.901Z,40.90
2022-08-21T09:54:27.119Z,41.21
2022-08-21T09:55:25.488Z,43.10
2022-08-21T09:56:28.278Z,42.61
2022-08-21T09:57:26.470Z,44.01
2022-08-21T09:58:25.450Z,42.82
2022-08-21T09:59:25.484Z,45.70
2022-08-21T10:00:25.431Z,46.60
2022-08-21T10:01:25.497Z,45.72
2022-08-21T10:02:25.514Z,47.98
2022-08-21T10:04:03.307Z,46.65
2022-08-21T10:04:27.314Z,46.84
2022-08-21T10:05:25.653Z,44.31
2022-08-21T10:06:25.834Z,46.32
2022-08-21T10:10:51.996Z,50.34
2022-08-21T10:11:52.630Z,49.65
2022-08-21T10:12:52.904Z,49.48
2022-08-21T10:13:51.985Z,50.85
2022-08-21T10:14:51.953Z,50.26
2022-08-21T10:16:21.732Z,50.16
2022-08-21T10:16:52.506Z,51.54
2022-08-21T10:17:51.927Z,52.14
2022-08-21T10:18:52.250Z,50.66
2022-08-21T10:19:51.934Z,48.28
2022-08-21T10:20:51.980Z,50.14
2022-08-21T10:21:51.885Z,48.91
2022-08-21T10:22:51.935Z,46.56
2022-08-21T10:24:01.779Z,48.12
2022-08-21T10:26:13.456Z,47.28
2022-08-21T10:27:10.420Z,49.27
2022-08-21T10:28:13.562Z,48.41
2022-08-21T10:29:09.737Z,48.63
2022-08-21T10:30:09.708Z,48.73
2022-08-21T10:35:21.174Z,50.21
2022-08-21T10:36:07.601Z,49.26
2022-08-21T10:37:14.422Z,47.44
2022-08-21T10:39:36.219Z,47.61
2022-08-21T10:40:34.612Z,44.82
2022-08-21T10:41:36.882Z,43.13
2022-08-21T10:42:36.641Z,41.76
2022-08-21T10:43:34.825Z,41.19
2022-08-21T10:44:34.734Z,42.58
2022-08-21T10:45:34.617Z,44.30
2022-08-21T10:46:34.635Z,45.28
2022-08-21T10:47:45.199Z,44.12
2022-08-21T10:48:34.524Z,44.81
2022-08-21T10:49:34.528Z,44.85
2022-08-21T10:50:34.506Z,44.46
2022-08-21T10:51:34.500Z,46.25
2022-08-21T10:52:34.484Z,47.34
2022-08-21T10:53:34.484Z,46.37
2022-08-21T10:54:34.472Z,46.99
2022-08-21T10:55:34.457Z,46.84
2022-08-21T10:56:34.449Z,47.72
2022-08-21T10:57:34.439Z,48.44
2022-08-21T10:58:34.421Z,49.62
2022-08-21T10:59:38.588Z,48.86
2022-08-21T11:00:34.417Z,52.51
2022-08-21T11:01:34.405Z,51.59
2022-08-21T11:02:34.386Z,49.77
2022-08-21T11:03:34.383Z,49.13
2022-08-21T11:04:49.514Z,46.43
2022-08-21T11:05:35.366Z,45.72
2022-08-21T11:06:34.348Z,44.69
2022-08-21T11:07:34.677Z,43.41
2022-08-21T11:08:34.325Z,43.12
2022-08-21T11:09:34.334Z,44.81
2022-08-21T11:10:34.867Z,45.23
2022-08-21T11:11:36.139Z,48.72
2022-08-21T11:12:34.296Z,44.87
2022-08-21T11:13:34.298Z,44.33
2022-08-21T11:14:34.309Z,42.03
2022-08-21T11:15:41.417Z,43.21
2022-08-21T11:16:34.329Z,40.29
2022-08-21T11:17:34.242Z,40.09
2022-08-21T11:18:34.235Z,39.51
2022-08-21T11:19:34.243Z,41.21
2022-08-21T11:20:34.209Z,41.17
2022-08-21T11:21:34.203Z,42.10
2022-08-21T11:22:34.191Z,44.47
2022-08-21T11:23:34.185Z,45.42
2022-08-21T11:24:34.195Z,47.42
2022-08-21T11:25:36.982Z,47.64
2022-08-21T11:26:34.154Z,48.85
2022-08-21T11:27:34.151Z,47.78
2022-08-21T11:28:34.144Z,48.90
2022-08-21T11:29:34.137Z,49.59
2022-08-21T11:30:34.122Z,48.92
2022-08-21T11:31:34.113Z,49.07
2022-08-21T11:32:34.100Z,50.65
2022-08-21T11:33:34.135Z,50.34
2022-08-21T11:34:34.089Z,53.58
2022-08-21T11:35:34.102Z,53.06
2022-08-21T11:36:34.056Z,50.46
2022-08-21T11:37:34.072Z,52.34
2022-08-21T11:38:34.057Z,50.81
2022-08-21T11:39:34.047Z,49.82
2022-08-21T11:40:34.033Z,50.98
2022-08-21T11:41:34.006Z,49.79
2022-08-21T11:42:34.001Z,47.69
2022-08-21T11:43:33.994Z,46.70
2022-08-21T11:44:33.995Z,48.75
2022-08-21T11:45:34.027Z,50.98
2022-08-21T11:52:45.799Z,46.53
2022-08-21T11:53:45.731Z,44.30
2022-08-21T11:54:45.821Z,39.23
2022-08-21T11:55:47.618Z,39.45
2022-08-21T11:56:45.664Z,38.40
2022-08-21T11:57:45.613Z,39.40
2022-08-21T11:58:45.646Z,41.25
2022-08-21T11:59:45.598Z,38.58
2022-08-21T12:00:45.572Z,38.29
2022-08-21T12:01:45.796Z,39.35
2022-08-21T12:02:45.566Z,38.92
2022-08-21T12:03:45.576Z,38.49
2022-08-21T12:04:46.951Z,39.04
2022-08-21T12:05:45.560Z,38.22
2022-08-21T12:06:45.567Z,38.20
2022-08-21T12:07:45.602Z,38.48
2022-08-21T12:08:45.503Z,36.10
2022-08-21T12:09:47.802Z,38.12
2022-08-21T12:10:45.487Z,37.41
2022-08-21T12:11:45.469Z,34.53
2022-08-21T12:12:52.348Z,34.55
2022-08-21T12:13:47.557Z,31.61
2022-08-21T12:14:55.330Z,31.35
2022-08-21T12:15:46.431Z,32.28
2022-08-21T12:16:45.417Z,34.22
2022-08-21T12:17:45.409Z,35.46
2022-08-21T12:18:45.398Z,33.78
2022-08-21T12:19:45.409Z,33.96
2022-08-21T12:20:50.824Z,33.01
2022-08-21T12:21:47.227Z,30.90
2022-08-21T12:24:18.893Z,34.78
2022-08-21T12:25:21.572Z,34.70
2022-08-21T12:26:19.901Z,39.33
2022-08-21T12:38:09.030Z,33.34
2022-08-21T12:39:09.192Z,32.47
2022-08-21T12:40:09.394Z,30.59
2022-08-21T12:41:10.364Z,29.33
2022-08-21T12:42:10.988Z,29.35
2022-08-21T12:43:10.230Z,29.53
2022-08-21T12:44:10.768Z,32.31
2022-08-21T12:45:11.234Z,32.34
2022-08-21T12:46:09.989Z,36.18
2022-08-21T12:47:08.666Z,35.85
2022-08-21T12:48:10.027Z,36.31
2022-08-21T12:49:11.344Z,35.90
2022-08-21T12:50:12.466Z,31.67
2022-08-21T12:51:09.938Z,30.68
2022-08-21T12:52:08.738Z,30.88
2022-08-21T12:53:20.279Z,33.39
2022-08-21T12:54:11.448Z,31.06
2022-08-21T12:55:10.760Z,33.18
2022-08-21T12:58:09.996Z,29.78
2022-08-21T12:59:11.169Z,30.83
2022-08-21T13:00:10.235Z,31.30
2022-08-21T13:01:09.708Z,30.41
2022-08-21T13:02:08.424Z,28.96
2022-08-21T13:03:08.919Z,32.07
2022-08-21T13:04:09.912Z,29.62
2022-08-21T13:05:09.449Z,28.28
2022-08-21T13:06:09.695Z,29.55
2022-08-21T13:07:10.281Z,31.40
2022-08-21T13:08:10.416Z,32.20
2022-08-21T13:09:10.924Z,30.52
2022-08-21T13:10:09.442Z,29.75
2022-08-21T13:11:14.947Z,33.15
2022-08-21T13:12:09.453Z,33.80
2022-08-21T13:13:12.383Z,32.41
2022-08-21T13:14:11.180Z,31.13
2022-08-21T13:19:24.117Z,29.90
2022-08-21T13:20:25.069Z,30.38
2022-08-21T13:25:12.288Z,30.91
2022-08-21T13:30:46.965Z,32.13
2022-08-21T13:31:48.479Z,31.26
2022-08-21T13:45:16.049Z,30.88
2022-08-21T13:54:21.290Z,32.74
2022-08-21T13:55:21.291Z,32.37
2022-08-21T13:56:30.429Z,32.48
2022-08-21T13:57:30.469Z,33.98
2022-08-21T13:58:30.485Z,35.00
2022-08-21T13:59:21.285Z,37.16
2022-08-21T14:00:21.471Z,36.20
2022-08-21T14:01:21.259Z,36.33
2022-08-21T14:02:21.240Z,39.28
2022-08-21T14:03:21.250Z,38.60
2022-08-21T14:04:42.381Z,36.72
2022-08-21T14:05:21.306Z,39.95
2022-08-21T14:06:21.306Z,38.95
2022-08-21T14:07:21.181Z,36.46
2022-08-21T14:08:21.172Z,37.62
2022-08-21T14:09:22.174Z,39.25
2022-08-21T14:10:21.154Z,32.57
2022-08-21T14:11:21.133Z,33.97
2022-08-21T14:12:23.624Z,34.66
2022-08-21T14:13:21.114Z,35.64
2022-08-21T14:14:21.123Z,33.48
2022-08-21T14:15:21.096Z,35.13
2022-08-21T14:16:21.092Z,36.01
2022-08-21T14:17:24.983Z,34.81
2022-08-21T14:18:22.078Z,34.90
2022-08-21T14:19:21.084Z,33.62
2022-08-21T14:20:21.055Z,32.25
2022-08-21T14:21:21.054Z,32.40
2022-08-21T14:22:21.031Z,34.75
2022-08-21T14:23:21.024Z,36.70
2022-08-21T14:24:21.041Z,34.81
2022-08-21T14:25:21.019Z,34.52
2022-08-21T14:26:20.993Z,34.70
2022-08-21T14:27:20.998Z,33.53
2022-08-21T14:28:20.992Z,33.62
2022-08-21T14:29:20.970Z,35.08
2022-08-21T14:30:20.970Z,32.73
2022-08-21T14:31:20.947Z,31.27
2022-08-21T14:32:24.497Z,33.69
2022-08-21T14:33:20.925Z,34.41
2022-08-21T14:34:20.924Z,35.44
2022-08-21T14:35:23.623Z,36.23
2022-08-21T14:36:20.899Z,38.10
2022-08-21T14:37:20.887Z,35.84
2022-08-21T14:38:20.885Z,36.51
2022-08-21T14:39:20.870Z,39.05
2022-08-21T14:40:20.932Z,37.16
2022-08-21T14:41:20.848Z,36.07
2022-08-21T14:42:20.841Z,34.39
2022-08-21T14:43:20.839Z,35.87
2022-08-21T14:44:20.818Z,34.58
2022-08-21T14:45:23.798Z,33.69
2022-08-21T14:46:21.808Z,34.00
2022-08-21T14:47:20.803Z,32.82
2022-08-21T14:48:20.781Z,33.61
2022-08-21T14:49:20.775Z,34.70
2022-08-21T14:50:20.771Z,35.20
2022-08-21T14:51:20.783Z,34.90
2022-08-21T14:52:20.739Z,36.16
2022-08-21T14:53:20.728Z,34.89
2022-08-21T14:54:20.719Z,34.59
2022-08-21T14:55:20.712Z,35.59
2022-08-21T14:56:20.706Z,33.33
2022-08-21T14:57:20.687Z,32.69
2022-08-21T14:58:20.680Z,33.97
2022-08-21T14:59:20.670Z,36.45
2022-08-21T15:00:20.670Z,36.53
2022-08-21T15:01:20.737Z,33.39
2022-08-21T15:02:20.652Z,36.35
2022-08-21T15:03:20.627Z,36.66
2022-08-21T15:04:20.625Z,34.18
2022-08-21T15:05:26.389Z,35.56
2022-08-21T15:06:21.610Z,34.99
2022-08-21T15:07:20.587Z,34.97
2022-08-21T15:08:20.600Z,37.14
2022-08-21T15:09:20.572Z,36.45
2022-08-21T15:10:20.578Z,33.98